This is the latest recevied weather packets stored in our database for station/object K7TUS-6. If no packets are shown the sender has not sent any weather packets the latest 1 day(s).
| Time | Temp. | Humidity | Pressure | Rain* | Wind** | Luminosity | Snow |
|---|---|---|---|---|---|---|---|
| 1778123104 | 10° C | 3% | 983.7 hPa | - | - | - | - |
| 1778122208 | 10° C | 3% | 983.2 hPa | - | - | - | - |
| 1778121607 | 11.11° C | 2% | 982.9 hPa | - | - | - | - |
| 1778121306 | 11.11° C | 3% | 983.2 hPa | - | - | - | - |
| 1778120408 | 11.67° C | 2% | 983.2 hPa | - | - | - | - |
| 1778119807 | 12.78° C | 100% | 983.6 hPa | - | - | - | - |
| 1778117107 | 17.78° C | 1% | 984 hPa | - | - | - | - |
| 1778116807 | 18.33° C | 1% | 983.9 hPa | - | - | - | - |
| 1778116506 | 18.89° C | 1% | 983.7 hPa | - | - | - | - |
| 1778115905 | 21.11° C | 1% | 983.9 hPa | - | - | - | - |
| 1778115303 | 21.11° C | 1% | 983.8 hPa | - | - | - | - |
| 1778115008 | 20.56° C | 1% | 983.9 hPa | - | - | - | - |
| 1778114708 | 19.44° C | 1% | 984 hPa | - | - | - | - |
| 1778114407 | 19.44° C | 1% | 983.8 hPa | - | - | - | - |
| 1778113806 | 19.44° C | 1% | 982.8 hPa | - | - | - | - |
| 1778113209 | 20.56° C | 1% | 984.4 hPa | - | - | - | - |
| 1778112607 | 20° C | 1% | 983.6 hPa | - | - | - | - |
| 1778112006 | 19.44° C | 1% | 983.5 hPa | - | - | - | - |
| 1778110509 | 18.89° C | 1% | 983 hPa | - | - | - | - |
| 1778109607 | 21.67° C | 1% | 983 hPa | - | - | - | - |
| 1778108705 | 20° C | 1% | 983.5 hPa | - | - | - | - |
| 1778107809 | 19.44° C | 1% | 983.8 hPa | - | - | - | - |
| 1778107208 | 18.89° C | 1% | 982.8 hPa | - | - | - | - |
| 1778106306 | 16.11° C | 100% | 983.6 hPa | - | - | - | - |
| 1778105705 | 17.22° C | 3% | 982.6 hPa | - | - | - | - |
* Rain since midnight (hover to see other rain measurements)
** Current wind speed in m/s (hover to see current wind gust speed)